This is the latest recevied weather packets stored in our database for station/object SQ8NA-15. If no packets are shown the sender has not sent any weather packets the latest 10 day(s).
| Time | Temp. | Humidity | Pressure | Rain* | Wind** | Luminosity | Snow |
|---|---|---|---|---|---|---|---|
| 1787656814 | 18.89° C | 54% | 981.9 hPa | 0 mm | - | 138 W/m² | - |
| 1787655578 | 19.44° C | 53% | 982 hPa | 0 mm | - | 290 W/m² | - |
| 1787654978 | 19.44° C | 54% | 982 hPa | 0 mm | - | 333 W/m² | - |
| 1787654377 | 18.89° C | 55% | 982.1 hPa | 0 mm | - | 465 W/m² | - |
| 1787653128 | 18.89° C | 55% | 982.2 hPa | 0 mm | - | 376 W/m² | - |
| 1787652515 | 18.33° C | 57% | 982.4 hPa | 0 mm | - | 408 W/m² | - |
| 1787651914 | 18.33° C | 60% | 982.3 hPa | 0 mm | - | 527 W/m² | - |
| 1787650690 | 17.78° C | 62% | 982.3 hPa | 0 mm | - | 262 W/m² | - |
| 1787650077 | 17.22° C | 60% | 982.5 hPa | 0 mm | - | 272 W/m² | - |
| 1787648863 | 17.22° C | 61% | 982.7 hPa | 0 mm | - | 358 W/m² | - |
| 1787648253 | 17.78° C | 60% | 982.7 hPa | 0 mm | - | 326 W/m² | - |
| 1787647639 | 17.78° C | 60% | 982.6 hPa | 0 mm | - | 330 W/m² | - |
| 1787646415 | 17.78° C | 59% | 982.7 hPa | 0 mm | - | 446 W/m² | - |
| 1787645815 | 17.22° C | 62% | 982.7 hPa | 0 mm | - | 352 W/m² | - |
| 1787645202 | 17.78° C | 61% | 982.8 hPa | 0 mm | - | 430 W/m² | - |
| 1787643990 | 16.11° C | 71% | 982.9 hPa | 0 mm | - | 255 W/m² | - |
| 1787643390 | 15.56° C | 69% | 983.1 hPa | 0 mm | - | 212 W/m² | - |
| 1787642776 | 15.56° C | 73% | 982.7 hPa | 0 mm | - | 213 W/m² | - |
| 1787641551 | 14.44° C | 77% | 982.5 hPa | 0 mm | - | 200 W/m² | - |
| 1787640940 | 14.44° C | 72% | 982.9 hPa | 0 mm | - | 181 W/m² | - |
| 1787640327 | 14.44° C | 75% | 983 hPa | 0 mm | - | 184 W/m² | - |
| 1787639101 | 14.44° C | 75% | 982.8 hPa | 0 mm | - | 219 W/m² | - |
| 1787638490 | 15° C | 70% | 982.7 hPa | 0 mm | - | 109 W/m² | - |
| 1787637889 | 13.33° C | 76% | 982.6 hPa | 0 mm | - | 143 W/m² | - |
| 1787636665 | 11.67° C | 84% | 982.6 hPa | 0 mm | - | 114 W/m² | - |
* Rain latest hour (hover to see other rain measurements)
** Current wind speed in m/s (hover to see current wind gust speed)